Time;durP1;ratioP1;P1;durP2;ratioP2;P2;SDS_P1;SDS_P2;PMS_P1;PMS_P2;Temp;Humidity;BMP_temperature;BMP_pressure;BME280_temperature;BME280_humidity;BME280_pressure;Samples;Min_cycle;Max_cycle;Signal;HPM_P1;HPM_P2
2021/12/01 00:04:10;;;;;;;6.57;2.17;;;;;;;1.89;100.00;95420.31;10572271;28;20213;-62
2021/12/01 00:09:10;;;;;;;6.53;1.30;;;;;;;1.77;100.00;95423.00;10571995;28;20190;-63
2021/12/01 00:14:10;;;;;;;6.87;1.80;;;;;;;1.75;100.00;95424.94;10572222;28;20225;-61
2021/12/01 00:19:11;;;;;;;7.57;2.13;;;;;;;1.67;100.00;95414.47;10571557;28;20189;-60
2021/12/01 00:24:11;;;;;;;7.23;1.73;;;;;;;1.68;100.00;95408.34;10571836;28;20198;-62
2021/12/01 00:29:11;;;;;;;4.00;1.47;;;;;;;1.68;100.00;95410.91;10571429;28;20173;-57
2021/12/01 00:34:12;;;;;;;16.67;2.13;;;;;;;1.72;100.00;95417.44;10571189;28;20162;-59
2021/12/01 00:39:12;;;;;;;9.30;1.90;;;;;;;1.71;100.00;95413.22;10571288;28;20189;-61
2021/12/01 00:44:12;;;;;;;12.93;1.90;;;;;;;1.87;100.00;95425.63;10570522;28;20265;-63
2021/12/01 00:49:13;;;;;;;8.60;1.70;;;;;;;1.87;100.00;95420.47;10570012;28;20293;-63
2021/12/01 00:54:13;;;;;;;5.90;1.80;;;;;;;1.84;100.00;95412.16;10570585;28;20336;-62
2021/12/01 00:59:14;;;;;;;8.10;2.30;;;;;;;1.70;100.00;95414.19;10569787;28;20177;-62
2021/12/01 01:04:15;;;;;;;8.37;2.13;;;;;;;1.60;100.00;95421.09;10569606;28;20207;-62
2021/12/01 01:09:16;;;;;;;11.90;2.40;;;;;;;1.53;100.00;95423.41;10569638;28;20275;-61
2021/12/01 01:19:38;;;;;;;5.07;1.70;;;;;;;1.54;100.00;95416.47;10568698;28;20170;-59
2021/12/01 01:24:38;;;;;;;14.23;1.60;;;;;;;1.54;100.00;95409.53;10569422;28;20317;-62
2021/12/01 01:29:39;;;;;;;6.70;1.70;;;;;;;1.53;100.00;95405.34;10568729;28;20234;-62
2021/12/01 01:34:39;;;;;;;13.07;1.73;;;;;;;1.52;100.00;95395.97;10568945;28;20392;-61
2021/12/01 01:39:40;;;;;;;5.87;1.40;;;;;;;1.58;100.00;95387.69;10568729;28;20412;-63
2021/12/01 01:44:40;;;;;;;8.70;1.80;;;;;;;1.46;100.00;95369.88;10568827;28;20323;-61
2021/12/01 01:54:41;;;;;;;8.77;1.80;;;;;;;1.61;100.00;95360.78;10567151;28;20161;-60
2021/12/01 01:59:43;;;;;;;9.23;1.87;;;;;;;1.53;100.00;95356.31;10567543;28;20284;-61
2021/12/01 02:04:44;;;;;;;6.10;1.80;;;;;;;1.55;100.00;95353.59;10566791;28;20460;-61
2021/12/01 02:09:44;;;;;;;5.70;1.60;;;;;;;1.49;100.00;95333.47;10567718;28;20214;-61
2021/12/01 02:14:44;;;;;;;6.63;1.67;;;;;;;1.48;100.00;95330.06;10567362;28;20458;-61
2021/12/01 02:19:45;;;;;;;12.83;2.17;;;;;;;1.41;100.00;95323.84;10566613;28;20403;-61
2021/12/01 02:24:46;;;;;;;6.23;2.00;;;;;;;1.46;100.00;95324.22;10567120;28;20209;-60
2021/12/01 02:29:46;;;;;;;4.13;1.80;;;;;;;1.49;100.00;95321.38;10567271;28;20182;-60
2021/12/01 02:34:46;;;;;;;2.43;1.97;;;;;;;1.44;100.00;95318.41;10566571;28;20184;-60
2021/12/01 02:39:50;;;;;;;4.27;1.60;;;;;;;1.46;100.00;95302.78;10567072;28;20285;-58
2021/12/01 02:44:51;;;;;;;2.63;1.37;;;;;;;1.43;100.00;95299.50;10566348;28;20191;-60
2021/12/01 02:49:54;;;;;;;8.00;1.50;;;;;;;1.34;100.00;95290.00;10566346;28;20174;-60
2021/12/01 02:54:55;;;;;;;3.23;1.43;;;;;;;1.36;100.00;95280.38;10566336;28;20416;-65
2021/12/01 02:59:55;;;;;;;6.60;2.27;;;;;;;1.24;100.00;95266.78;10567045;28;20170;-61
2021/12/01 03:04:56;;;;;;;3.57;1.27;;;;;;;1.30;100.00;95264.59;10566289;28;20205;-64
2021/12/01 03:09:56;;;;;;;1.27;1.17;;;;;;;1.29;100.00;95238.00;10574050;28;20169;-61
2021/12/01 03:14:57;;;;;;;1.63;0.90;;;;;;;1.19;100.00;95247.50;10574160;28;20214;-62
2021/12/01 03:19:58;;;;;;;1.57;0.93;;;;;;;1.29;100.00;95245.75;10574404;28;20295;-63
2021/12/01 03:24:58;;;;;;;2.30;0.97;;;;;;;1.32;100.00;95227.41;10574200;28;20209;-62
2021/12/01 03:29:59;;;;;;;1.00;0.90;;;;;;;1.38;100.00;95226.06;10574187;28;20295;-62
2021/12/01 03:35:00;;;;;;;2.30;0.97;;;;;;;1.33;100.00;95210.16;10573538;28;20188;-63
2021/12/01 03:40:01;;;;;;;1.53;0.93;;;;;;;1.38;100.00;95205.41;10573061;28;20287;-60
2021/12/01 03:45:02;;;;;;;3.33;0.77;;;;;;;1.52;100.00;95201.59;10573110;28;20255;-61
2021/12/01 03:50:04;;;;;;;0.97;0.97;;;;;;;1.57;100.00;95176.19;10573668;28;20180;-63
2021/12/01 03:55:05;;;;;;;1.40;1.20;;;;;;;1.73;100.00;95157.50;10573155;28;20179;-62
2021/12/01 04:00:09;;;;;;;4.37;1.77;;;;;;;1.81;100.00;95152.47;10572690;28;20171;-60
2021/12/01 04:05:15;;;;;;;4.07;2.17;;;;;;;1.96;100.00;95150.22;10541488;28;20257;-63
2021/12/01 04:10:16;;;;;;;3.27;2.17;;;;;;;2.04;100.00;95134.84;10525194;28;20293;-62
2021/12/01 04:15:16;;;;;;;4.27;1.90;;;;;;;2.07;100.00;95121.66;10523987;28;20445;-61
2021/12/01 04:20:19;;;;;;;9.33;6.67;;;;;;;2.12;100.00;95119.44;10522833;28;20275;-62
2021/12/01 04:25:20;;;;;;;4.03;2.40;;;;;;;2.12;100.00;95105.72;10524026;28;20217;-61
2021/12/01 04:30:22;;;;;;;16.10;8.57;;;;;;;2.21;100.00;95102.28;10523712;28;20171;-62
2021/12/01 04:35:25;;;;;;;3.63;2.90;;;;;;;2.31;100.00;95090.13;10523508;28;20155;-63
2021/12/01 04:40:26;;;;;;;6.67;5.23;;;;;;;2.37;100.00;95093.88;10523170;28;20175;-58
2021/12/01 04:45:27;;;;;;;2.67;2.47;;;;;;;2.41;100.00;95084.06;10523036;28;20241;-61
2021/12/01 04:50:28;;;;;;;1.20;1.10;;;;;;;2.51;100.00;95079.63;10523105;28;20301;-60
2021/12/01 04:55:28;;;;;;;0.80;0.80;;;;;;;2.63;100.00;95068.13;10522816;28;20178;-63
2021/12/01 05:00:29;;;;;;;0.63;0.63;;;;;;;2.65;100.00;95052.47;10522366;28;20183;-61
2021/12/01 05:05:29;;;;;;;0.90;0.90;;;;;;;2.67;100.00;95053.13;10528363;28;20257;-63
2021/12/01 05:10:30;;;;;;;0.60;0.60;;;;;;;2.75;100.00;95042.84;10527998;28;20181;-61
2021/12/01 05:15:30;;;;;;;0.80;0.80;;;;;;;2.79;100.00;95038.22;10527694;28;20215;-62
2021/12/01 05:20:31;;;;;;;0.97;0.80;;;;;;;2.90;100.00;95039.75;10527353;28;20393;-60
2021/12/01 05:25:31;;;;;;;0.70;0.70;;;;;;;2.89;100.00;95031.16;10527247;28;20211;-64
2021/12/01 05:30:31;;;;;;;0.60;0.60;;;;;;;2.96;100.00;95031.38;10527122;28;20175;-65
2021/12/01 05:35:33;;;;;;;0.77;0.60;;;;;;;2.95;100.00;95015.03;10526983;28;20198;-64
2021/12/01 05:40:33;;;;;;;0.60;0.60;;;;;;;3.08;100.00;95021.56;10526924;28;20248;-63
2021/12/01 05:45:33;;;;;;;0.50;0.50;;;;;;;3.09;100.00;95018.03;10526491;28;20199;-63
2021/12/01 05:50:34;;;;;;;0.40;0.40;;;;;;;3.22;100.00;95013.28;10526344;28;20370;-63
2021/12/01 05:55:36;;;;;;;0.50;0.50;;;;;;;3.26;100.00;95017.16;10526289;28;20386;-64
2021/12/01 06:00:37;;;;;;;0.57;0.57;;;;;;;3.25;100.00;95009.53;10525967;28;20167;-62
2021/12/01 06:05:37;;;;;;;1.27;0.70;;;;;;;3.20;100.00;94997.06;10526081;28;20223;-64
2021/12/01 06:10:39;;;;;;;0.50;0.50;;;;;;;3.22;100.00;94990.78;10525829;28;20171;-62
2021/12/01 06:15:40;;;;;;;0.77;0.60;;;;;;;3.16;100.00;94973.28;10525649;28;20671;-61
2021/12/01 06:20:41;;;;;;;0.70;0.70;;;;;;;3.16;100.00;94957.75;10525409;28;20178;-64
2021/12/01 06:25:41;;;;;;;0.80;0.50;;;;;;;3.22;100.00;94943.41;10525422;28;20198;-64
2021/12/01 06:30:42;;;;;;;1.23;1.13;;;;;;;3.15;100.00;94942.38;10525301;28;20167;-66
2021/12/01 06:35:48;;;;;;;0.80;0.80;;;;;;;3.26;100.00;94942.09;10525536;28;20185;-66
2021/12/01 06:40:48;;;;;;;0.60;0.60;;;;;;;3.32;100.00;94925.16;10524465;28;20209;-67
2021/12/01 06:45:49;;;;;;;0.70;0.70;;;;;;;3.32;100.00;94933.75;10524007;28;20198;-67
2021/12/01 06:50:49;;;;;;;0.50;0.50;;;;;;;3.37;100.00;94925.53;10524800;28;20296;-63
2021/12/01 06:55:49;;;;;;;0.40;0.40;;;;;;;3.50;100.00;94920.69;10524803;28;20307;-64
2021/12/01 07:00:50;;;;;;;0.40;0.40;;;;;;;3.53;100.00;94910.03;10530445;28;20182;-65
2021/12/01 07:05:50;;;;;;;0.40;0.40;;;;;;;3.56;100.00;94895.97;10532275;28;20214;-63
2021/12/01 07:10:51;;;;;;;0.80;0.80;;;;;;;3.36;100.00;94878.09;10524269;28;20167;-64
2021/12/01 07:15:52;;;;;;;0.40;0.40;;;;;;;3.41;100.00;94887.19;10524341;28;20222;-64
2021/12/01 07:20:52;;;;;;;0.50;0.50;;;;;;;3.45;100.00;94857.44;10522860;28;20416;-61
2021/12/01 07:25:52;;;;;;;0.50;0.50;;;;;;;3.49;100.00;94862.13;10524125;28;20207;-61
2021/12/01 07:30:53;;;;;;;0.50;0.50;;;;;;;3.56;100.00;94857.94;10522811;28;20215;-61
2021/12/01 07:35:53;;;;;;;0.40;0.40;;;;;;;3.61;100.00;94838.53;10523397;28;20427;-62
2021/12/01 07:40:53;;;;;;;0.97;0.60;;;;;;;3.65;100.00;94808.75;10523556;28;20190;-63
2021/12/01 07:45:55;;;;;;;0.93;0.50;;;;;;;3.71;100.00;94795.97;10523614;28;20223;-62
2021/12/01 07:50:55;;;;;;;2.03;0.60;;;;;;;3.80;100.00;94786.44;10523070;28;20168;-61
2021/12/01 07:55:55;;;;;;;0.63;0.63;;;;;;;3.79;100.00;94768.47;10548598;28;20218;-61
2021/12/01 08:00:56;;;;;;;1.17;0.60;;;;;;;3.96;100.00;94766.66;10570549;28;20243;-63
2021/12/01 08:05:56;;;;;;;0.50;0.50;;;;;;;3.93;100.00;94771.19;10570098;28;20444;-61
2021/12/01 08:10:57;;;;;;;0.70;0.50;;;;;;;4.09;100.00;94793.69;10553681;28;20416;-62
2021/12/01 08:15:57;;;;;;;0.50;0.50;;;;;;;4.13;100.00;94801.94;10570292;28;20207;-61
2021/12/01 08:20:57;;;;;;;0.70;0.70;;;;;;;4.05;100.00;94815.72;10569169;28;20190;-61
2021/12/01 08:25:58;;;;;;;1.97;0.90;;;;;;;3.97;100.00;94815.72;10568856;28;20273;-63
2021/12/01 08:30:59;;;;;;;0.80;0.80;;;;;;;4.03;100.00;94811.69;10569248;28;20174;-62
2021/12/01 08:36:00;;;;;;;1.13;0.90;;;;;;;4.09;100.00;94818.81;10569330;28;20163;-63
2021/12/01 08:41:00;;;;;;;0.73;0.73;;;;;;;4.03;100.00;94794.34;10568868;28;20174;-62
2021/12/01 08:46:03;;;;;;;0.70;0.70;;;;;;;4.02;100.00;94776.38;10568469;28;20444;-61
2021/12/01 08:51:04;;;;;;;0.80;0.80;;;;;;;3.98;100.00;94767.31;10568118;28;20251;-63
2021/12/01 08:56:04;;;;;;;0.80;0.80;;;;;;;3.91;100.00;94759.38;10568656;28;20175;-62
2021/12/01 09:01:05;;;;;;;2.73;1.20;;;;;;;3.93;100.00;94753.06;10567042;28;20189;-61
2021/12/01 09:06:05;;;;;;;0.93;0.93;;;;;;;3.88;100.00;94763.09;10567005;28;20198;-61
2021/12/01 09:11:06;;;;;;;2.70;1.70;;;;;;;3.92;100.00;94743.69;10567996;28;20175;-61
2021/12/01 09:16:07;;;;;;;4.73;2.70;;;;;;;3.84;100.00;94727.34;10566365;28;20215;-62
2021/12/01 09:21:07;;;;;;;38.93;17.10;;;;;;;3.90;100.00;94703.38;10567066;28;20296;-61
2021/12/01 09:26:08;;;;;;;2.53;2.13;;;;;;;3.95;100.00;94705.47;10566895;28;20194;-61
2021/12/01 09:31:08;;;;;;;0.80;0.80;;;;;;;4.07;100.00;94676.47;10565007;28;20174;-59
2021/12/01 09:36:08;;;;;;;1.10;1.10;;;;;;;4.09;100.00;94637.44;10566695;28;20167;-59
2021/12/01 09:41:09;;;;;;;1.07;1.00;;;;;;;4.11;100.00;94641.44;10565666;28;20389;-62
2021/12/01 09:46:10;;;;;;;0.80;0.80;;;;;;;4.24;100.00;94645.28;10565140;28;20209;-60
2021/12/01 09:51:13;;;;;;;0.70;0.70;;;;;;;4.33;100.00;94615.75;10565187;28;20187;-60
2021/12/01 09:56:13;;;;;;;0.77;0.73;;;;;;;4.38;100.00;94602.28;10565573;28;20174;-60
2021/12/01 10:01:17;;;;;;;0.50;0.50;;;;;;;4.39;100.00;94581.38;10564272;28;20182;-63
2021/12/01 10:06:22;;;;;;;0.60;0.60;;;;;;;4.45;100.00;94570.31;10565357;28;20210;-60
2021/12/01 10:11:25;;;;;;;0.87;0.70;;;;;;;4.60;100.00;94573.00;10565684;28;20175;-63
2021/12/01 10:16:29;;;;;;;0.90;0.90;;;;;;;4.62;100.00;94599.56;10563069;28;20229;-62
2021/12/01 10:21:29;;;;;;;2.07;0.70;;;;;;;4.74;100.00;94614.72;10564784;28;20170;-63
2021/12/01 10:26:32;;;;;;;4.57;2.13;;;;;;;4.75;100.00;94624.94;10550174;28;20171;-61
2021/12/01 10:31:45;;;;;;;1.17;1.07;;;;;;;4.69;100.00;94614.44;10538555;28;20179;-60
2021/12/01 10:36:47;;;;;;;2.53;1.93;;;;;;;4.66;100.00;94609.59;10532648;28;20335;-59
2021/12/01 10:41:47;;;;;;;1.90;0.90;;;;;;;4.59;100.00;94593.91;10522755;28;20392;-63
2021/12/01 10:46:53;;;;;;;1.60;1.20;;;;;;;4.59;100.00;94573.16;10522388;28;20216;-61
2021/12/01 10:51:53;;;;;;;2.50;0.90;;;;;;;4.62;100.00;94570.22;10522629;28;20163;-63
2021/12/01 10:57:15;;;;;;;0.80;0.80;;;;;;;4.61;100.00;94561.66;10522120;28;20199;-60
2021/12/01 11:02:17;;;;;;;1.30;1.17;;;;;;;4.55;100.00;94553.72;10522213;28;20210;-61
2021/12/01 11:07:28;;;;;;;2.20;1.13;;;;;;;4.49;100.00;94531.91;10540942;28;20182;-63
2021/12/01 11:12:29;;;;;;;0.77;0.77;;;;;;;4.52;100.00;94516.00;10564423;28;20422;-62
2021/12/01 11:17:40;;;;;;;2.97;1.70;;;;;;;5.16;100.00;94522.59;10563017;28;20275;-63
2021/12/01 11:22:40;;;;;;;1.03;0.97;;;;;;;5.71;100.00;94513.59;10563836;28;20210;-61
2021/12/01 11:27:40;;;;;;;1.40;1.10;;;;;;;5.63;100.00;94529.25;10566319;28;20337;-60
2021/12/01 11:32:41;;;;;;;1.63;0.90;;;;;;;5.36;100.00;94513.31;10567071;28;20270;-62
2021/12/01 11:37:42;;;;;;;0.93;0.93;;;;;;;5.13;100.00;94497.81;10570135;28;20167;-62
2021/12/01 11:42:42;;;;;;;1.00;1.00;;;;;;;4.98;100.00;94465.88;10570173;28;20214;-59
2021/12/01 11:47:47;;;;;;;1.27;0.77;;;;;;;4.96;100.00;94466.03;10570393;28;20178;-58
2021/12/01 11:53:02;;;;;;;1.53;0.80;;;;;;;4.99;100.00;94444.94;10570352;28;20163;-57
2021/12/01 11:58:02;;;;;;;1.50;1.00;;;;;;;5.11;100.00;94442.66;10570847;28;20344;-61
2021/12/01 12:03:25;;;;;;;3.00;1.50;;;;;;;5.13;100.00;94430.34;10568396;28;20210;-60
2021/12/01 12:08:54;;;;;;;1.30;1.20;;;;;;;4.94;100.00;94421.28;10569671;28;20224;-58
2021/12/01 12:14:02;;;;;;;2.37;1.57;;;;;;;4.95;100.00;94399.56;10567671;28;20214;-61
2021/12/01 12:19:03;;;;;;;2.50;1.97;;;;;;;5.02;100.00;94404.03;10555345;28;20245;-60
2021/12/01 12:24:07;;;;;;;1.63;1.30;;;;;;;5.18;100.00;94396.84;10527972;28;20199;-59
2021/12/01 12:29:13;;;;;;;6.50;3.63;;;;;;;5.23;100.00;94411.88;10526547;28;20413;-59
2021/12/01 12:34:21;;;;;;;1.10;1.00;;;;;;;5.15;100.00;94391.22;10527928;28;20199;-64
2021/12/01 12:39:30;;;;;;;1.27;0.80;;;;;;;5.22;100.00;94380.94;10526305;28;20217;-62
2021/12/01 12:44:36;;;;;;;1.70;0.97;;;;;;;5.31;100.00;94396.25;10554291;28;20358;-61
2021/12/01 12:49:55;;;;;;;2.43;0.77;;;;;;;5.33;100.00;94370.88;10568792;28;20163;-64
2021/12/01 12:54:57;;;;;;;1.00;1.00;;;;;;;5.32;100.00;94358.09;10568167;28;20198;-62
2021/12/01 13:00:25;;;;;;;0.50;0.50;;;;;;;5.48;100.00;94394.22;10567887;28;20178;-62
2021/12/01 13:05:37;;;;;;;0.60;0.60;;;;;;;5.54;100.00;94343.34;10567605;28;20312;-61
2021/12/01 13:10:39;;;;;;;0.63;0.63;;;;;;;5.69;100.00;94335.50;10567388;28;20170;-63
2021/12/01 13:15:42;;;;;;;0.50;0.50;;;;;;;5.70;100.00;94326.72;10566326;28;20363;-62
2021/12/01 13:20:55;;;;;;;0.70;0.70;;;;;;;5.73;100.00;94336.75;10566681;28;20180;-61
2021/12/01 13:26:05;;;;;;;0.50;0.50;;;;;;;5.76;100.00;94313.00;10567043;28;20236;-63
2021/12/01 13:31:11;;;;;;;0.97;0.70;;;;;;;5.68;100.00;94308.75;10566598;28;20174;-62
2021/12/01 13:36:16;;;;;;;0.60;0.60;;;;;;;5.58;100.00;94302.25;10566853;28;20167;-64
2021/12/01 13:41:17;;;;;;;0.60;0.60;;;;;;;5.68;100.00;94285.34;10567105;28;20166;-63
2021/12/01 13:46:18;;;;;;;0.50;0.50;;;;;;;5.73;100.00;94287.41;10565174;28;20202;-61
2021/12/01 13:51:19;;;;;;;0.90;0.90;;;;;;;5.65;100.00;94277.94;10565871;28;20186;-62
2021/12/01 13:56:21;;;;;;;1.13;1.03;;;;;;;5.69;100.00;94268.75;10566517;28;20179;-63
2021/12/01 14:01:22;;;;;;;1.17;1.00;;;;;;;5.67;100.00;94247.38;10565843;28;20238;-62
2021/12/01 14:06:31;;;;;;;0.60;0.60;;;;;;;5.66;100.00;94265.75;10565887;28;20229;-63
2021/12/01 14:11:39;;;;;;;0.70;0.70;;;;;;;5.74;100.00;94236.25;10565870;28;20170;-63
2021/12/01 14:16:43;;;;;;;0.50;0.50;;;;;;;5.76;100.00;94239.44;10565269;28;20229;-63
2021/12/01 14:21:44;;;;;;;0.70;0.70;;;;;;;5.66;100.00;94237.19;10564274;28;20224;-63
2021/12/01 14:26:50;;;;;;;0.63;0.63;;;;;;;5.68;100.00;94240.38;10565316;28;20178;-64
2021/12/01 14:32:07;;;;;;;1.07;0.80;;;;;;;5.77;100.00;94235.88;10565216;28;20385;-64
2021/12/01 14:37:10;;;;;;;0.60;0.60;;;;;;;5.64;100.00;94229.56;10564886;28;20170;-64
2021/12/01 14:42:11;;;;;;;0.60;0.60;;;;;;;5.60;100.00;94227.53;10565004;28;20266;-65
2021/12/01 14:47:14;;;;;;;0.50;0.50;;;;;;;5.62;100.00;94225.53;10564460;28;20461;-64
2021/12/01 14:52:28;;;;;;;0.50;0.50;;;;;;;5.62;100.00;94226.38;10541183;28;20168;-63
2021/12/01 14:57:34;;;;;;;1.27;1.17;;;;;;;5.77;100.00;94220.28;10541359;28;20210;-63
2021/12/01 15:02:36;;;;;;;0.70;0.70;;;;;;;5.69;100.00;94229.81;10540702;28;20211;-63
2021/12/01 15:07:52;;;;;;;0.60;0.60;;;;;;;5.79;100.00;94224.31;10530490;28;20382;-60
2021/12/01 15:13:00;;;;;;;0.60;0.60;;;;;;;5.87;100.00;94218.16;10529802;28;20225;-58
2021/12/01 15:18:11;;;;;;;0.60;0.60;;;;;;;5.85;100.00;94236.53;10529921;28;20424;-62
2021/12/01 15:23:11;;;;;;;0.60;0.60;;;;;;;5.92;100.00;94215.00;10535876;28;20191;-62
2021/12/01 15:28:12;;;;;;;0.60;0.60;;;;;;;5.92;100.00;94213.19;10530650;28;20234;-62
2021/12/01 15:33:18;;;;;;;0.60;0.60;;;;;;;5.78;100.00;94191.50;10528939;28;20164;-62
2021/12/01 15:38:18;;;;;;;0.70;0.70;;;;;;;5.78;100.00;94206.31;10530298;28;20168;-65
2021/12/01 15:43:18;;;;;;;0.60;0.60;;;;;;;5.87;100.00;94189.59;10529680;28;20222;-62
2021/12/01 15:48:19;;;;;;;0.70;0.70;;;;;;;5.88;100.00;94175.56;10527473;28;20226;-62
2021/12/01 15:53:21;;;;;;;0.53;0.53;;;;;;;5.84;100.00;94154.38;10529655;28;20183;-63
2021/12/01 15:58:24;;;;;;;0.50;0.50;;;;;;;5.74;100.00;94168.69;10567200;28;20210;-63
2021/12/01 16:03:24;;;;;;;1.27;0.47;;;;;;;5.81;100.00;94144.38;10570115;28;20254;-62
2021/12/01 16:08:25;;;;;;;0.70;0.70;;;;;;;5.76;100.00;94127.75;10570484;28;20168;-64
2021/12/01 16:13:25;;;;;;;3.73;1.70;;;;;;;5.69;100.00;94123.31;10568771;28;20172;-63
2021/12/01 16:18:26;;;;;;;3.87;3.00;;;;;;;5.70;100.00;94130.13;10569419;28;20174;-61
2021/12/01 16:23:28;;;;;;;0.70;0.70;;;;;;;5.67;100.00;94114.13;10570137;28;20244;-61
2021/12/01 16:28:28;;;;;;;0.53;0.53;;;;;;;5.68;100.00;94134.72;10568374;28;20317;-63
2021/12/01 16:33:29;;;;;;;0.60;0.60;;;;;;;5.75;100.00;94129.53;10568943;28;20181;-64
2021/12/01 16:38:30;;;;;;;7.40;5.80;;;;;;;5.77;100.00;94114.56;10569783;28;20166;-64
2021/12/01 16:43:30;;;;;;;0.60;0.60;;;;;;;5.77;100.00;94126.75;10569345;28;20356;-61
2021/12/01 16:48:33;;;;;;;1.63;1.53;;;;;;;5.75;100.00;94098.38;10568223;28;20227;-63
2021/12/01 16:53:36;;;;;;;3.33;1.90;;;;;;;5.78;100.00;94092.78;10569360;28;20167;-64
2021/12/01 16:58:37;;;;;;;1.90;1.80;;;;;;;5.93;100.00;94097.88;10567796;28;20326;-63
2021/12/01 17:03:52;;;;;;;0.63;0.63;;;;;;;5.90;100.00;94103.47;10567757;28;20197;-64
2021/12/01 17:08:54;;;;;;;0.93;0.80;;;;;;;5.95;100.00;94092.50;10567970;28;20250;-62
2021/12/01 17:13:54;;;;;;;1.43;0.93;;;;;;;5.94;100.00;94104.69;10568241;28;20225;-64
2021/12/01 17:18:55;;;;;;;0.60;0.60;;;;;;;6.03;100.00;94113.13;10562565;28;20177;-61
2021/12/01 17:23:55;;;;;;;0.70;0.70;;;;;;;5.98;100.00;94105.91;10565815;28;20194;-63
2021/12/01 17:28:56;;;;;;;0.50;0.50;;;;;;;5.93;100.00;94086.69;10567871;28;20323;-63
2021/12/01 17:33:56;;;;;;;0.80;0.80;;;;;;;5.87;100.00;94083.84;10567689;28;20178;-63
2021/12/01 17:38:56;;;;;;;3.60;2.03;;;;;;;5.88;100.00;94074.25;10567792;28;20181;-64
2021/12/01 17:43:57;;;;;;;2.60;1.83;;;;;;;5.87;100.00;94077.84;10567682;28;20202;-64
2021/12/01 17:48:57;;;;;;;1.10;0.90;;;;;;;5.85;100.00;94064.25;10567465;28;20162;-63
2021/12/01 17:53:57;;;;;;;5.10;2.73;;;;;;;5.96;100.00;94050.72;10567410;28;20397;-64
2021/12/01 17:58:58;;;;;;;3.43;2.00;;;;;;;5.97;100.00;94061.94;10567017;28;20373;-64
2021/12/01 18:03:58;;;;;;;1.10;0.93;;;;;;;5.85;100.00;94065.06;10565806;28;20314;-65
2021/12/01 18:08:59;;;;;;;16.90;7.37;;;;;;;5.79;100.00;94072.81;10566491;28;20285;-64
2021/12/01 18:14:00;;;;;;;19.13;9.13;;;;;;;5.81;100.00;94071.63;10566000;28;20206;-65
2021/12/01 18:19:02;;;;;;;2.43;1.43;;;;;;;5.91;100.00;94060.88;10564879;28;20193;-62
2021/12/01 18:24:05;;;;;;;0.70;0.70;;;;;;;5.88;100.00;94084.63;10563243;28;20224;-64
2021/12/01 18:29:07;;;;;;;0.70;0.60;;;;;;;5.82;100.00;94072.41;10564067;28;20174;-64
2021/12/01 18:34:09;;;;;;;0.43;0.43;;;;;;;5.81;100.00;94079.44;10564235;28;20158;-63
2021/12/01 18:39:10;;;;;;;0.83;0.73;;;;;;;5.83;100.00;94079.22;10563364;28;20407;-64
2021/12/01 18:44:10;;;;;;;0.70;0.70;;;;;;;5.90;100.00;94077.47;10564576;28;20206;-62
2021/12/01 18:49:12;;;;;;;0.63;0.60;;;;;;;5.92;100.00;94096.25;10564156;28;20512;-64
2021/12/01 18:54:12;;;;;;;0.50;0.50;;;;;;;5.93;100.00;94081.50;10564646;28;20282;-64
2021/12/01 18:59:12;;;;;;;0.50;0.50;;;;;;;5.98;100.00;94086.94;10563449;28;20174;-62
2021/12/01 19:04:15;;;;;;;0.70;0.70;;;;;;;5.98;100.00;94092.94;10564134;28;20202;-63
2021/12/01 19:09:17;;;;;;;0.60;0.60;;;;;;;6.01;100.00;94096.94;10562666;28;20287;-65
2021/12/01 19:14:18;;;;;;;0.87;0.70;;;;;;;5.95;100.00;94097.69;10564078;28;20275;-65
2021/12/01 19:19:18;;;;;;;0.67;0.67;;;;;;;5.96;100.00;94091.50;10562198;28;20224;-65
2021/12/01 19:24:19;;;;;;;1.70;0.50;;;;;;;5.99;100.00;94096.34;10566280;28;20270;-65
2021/12/01 19:29:20;;;;;;;1.40;1.30;;;;;;;6.02;100.00;94093.38;10565948;28;20224;-66
2021/12/01 19:34:20;;;;;;;0.70;0.70;;;;;;;5.94;100.00;94102.09;10566003;28;20303;-66
2021/12/01 19:39:21;;;;;;;0.93;0.80;;;;;;;6.00;100.00;94097.94;10565650;28;20179;-65
2021/12/01 19:44:21;;;;;;;0.50;0.50;;;;;;;6.09;100.00;94085.59;10565551;28;20190;-63
2021/12/01 19:49:22;;;;;;;0.60;0.60;;;;;;;6.05;100.00;94104.16;10565547;28;20178;-63
2021/12/01 19:54:23;;;;;;;1.37;1.27;;;;;;;6.06;100.00;94097.97;10571706;28;20159;-65
2021/12/01 19:59:24;;;;;;;0.60;0.60;;;;;;;6.24;100.00;94110.44;10572572;28;20163;-64
2021/12/01 20:04:24;;;;;;;0.50;0.50;;;;;;;6.29;100.00;94109.06;10572042;28;20194;-65
2021/12/01 20:09:25;;;;;;;0.53;0.53;;;;;;;6.22;100.00;94143.63;10571579;28;20389;-64
2021/12/01 20:14:25;;;;;;;0.60;0.60;;;;;;;6.36;100.00;94117.69;10570676;28;20419;-64
2021/12/01 20:19:26;;;;;;;0.73;0.73;;;;;;;6.41;100.00;94115.28;10570922;28;20162;-64
2021/12/01 20:24:31;;;;;;;0.50;0.50;;;;;;;6.10;100.00;94121.78;10571352;28;20434;-65
2021/12/01 20:29:33;;;;;;;1.70;0.80;;;;;;;5.91;100.00;94120.63;10570948;28;20400;-65
2021/12/01 20:34:33;;;;;;;0.77;0.60;;;;;;;5.83;100.00;94136.38;10570854;28;20279;-64
2021/12/01 20:39:35;;;;;;;0.80;0.70;;;;;;;5.89;100.00;94118.22;10570539;28;20186;-64
2021/12/01 20:44:37;;;;;;;0.63;0.63;;;;;;;5.87;100.00;94142.81;10570563;28;20198;-65
2021/12/01 20:55:05;;;;;;;0.60;0.60;;;;;;;5.85;100.00;94122.22;10570197;28;20171;-65
2021/12/01 21:05:28;;;;;;;0.70;0.70;;;;;;;5.80;100.00;94136.78;10569884;28;20202;-65
2021/12/01 21:10:34;;;;;;;0.80;0.80;;;;;;;5.78;100.00;94151.75;10569228;28;20477;-65
2021/12/01 21:15:36;;;;;;;0.53;0.50;;;;;;;5.81;100.00;94146.97;10568515;28;20494;-64
2021/12/01 21:20:40;;;;;;;0.60;0.60;;;;;;;5.69;100.00;94157.06;10569177;28;20166;-61
2021/12/01 21:25:46;;;;;;;0.83;0.80;;;;;;;5.48;100.00;94168.34;10568429;28;20239;-63
2021/12/01 21:30:50;;;;;;;2.13;0.80;;;;;;;5.33;100.00;94165.00;10568509;28;20171;-61
2021/12/01 21:35:51;;;;;;;0.77;0.77;;;;;;;5.21;98.94;94182.88;10568422;28;20171;-62
2021/12/01 21:40:51;;;;;;;1.00;0.90;;;;;;;5.10;99.72;94185.94;10568578;28;20333;-63
2021/12/01 21:45:52;;;;;;;0.80;0.80;;;;;;;5.06;100.00;94189.91;10567851;28;20232;-62
2021/12/01 21:50:53;;;;;;;0.80;0.80;;;;;;;5.10;99.08;94188.53;10567069;28;20292;-63
2021/12/01 21:55:55;;;;;;;0.90;0.90;;;;;;;5.27;97.46;94191.72;10566974;28;20167;-63
2021/12/01 22:00:55;;;;;;;0.83;0.83;;;;;;;5.22;98.45;94200.03;10567409;28;20318;-62
2021/12/01 22:06:02;;;;;;;0.87;0.83;;;;;;;5.35;98.19;94197.56;10566795;28;20198;-63
2021/12/01 22:11:04;;;;;;;0.90;0.90;;;;;;;5.38;97.41;94195.59;10566474;28;20170;-63
2021/12/01 22:16:05;;;;;;;2.40;1.00;;;;;;;5.40;97.16;94222.97;10565869;28;20222;-62
2021/12/01 22:21:15;;;;;;;1.40;0.97;;;;;;;5.38;97.56;94196.41;10567559;28;20167;-63
2021/12/01 22:26:19;;;;;;;0.93;0.90;;;;;;;5.43;96.07;94206.22;10567672;28;20198;-61
2021/12/01 22:31:20;;;;;;;0.93;0.80;;;;;;;5.28;97.52;94203.69;10567070;28;20178;-64
2021/12/01 22:36:22;;;;;;;0.70;0.70;;;;;;;5.21;99.71;94185.47;10567404;28;20193;-64
2021/12/01 22:41:22;;;;;;;1.00;0.90;;;;;;;4.99;100.00;94169.91;10566890;28;20170;-64
2021/12/01 22:46:23;;;;;;;1.37;0.87;;;;;;;5.00;100.00;94176.69;10566938;28;20393;-64
2021/12/01 22:51:23;;;;;;;0.90;0.90;;;;;;;5.02;100.00;94173.09;10566163;28;20166;-63
2021/12/01 22:56:26;;;;;;;1.10;1.00;;;;;;;4.96;100.00;94172.88;10566602;28;20179;-61
2021/12/01 23:01:27;;;;;;;0.83;0.83;;;;;;;4.86;100.00;94185.31;10566668;28;20318;-63
2021/12/01 23:06:28;;;;;;;0.97;0.80;;;;;;;5.00;100.00;94170.69;10566601;28;20210;-63
2021/12/01 23:11:30;;;;;;;1.00;0.90;;;;;;;5.06;100.00;94190.72;10566581;28;20170;-64
2021/12/01 23:16:31;;;;;;;0.80;0.80;;;;;;;5.08;99.29;94206.88;10566132;28;20218;-64
2021/12/01 23:21:32;;;;;;;0.80;0.80;;;;;;;4.86;100.00;94232.00;10564774;28;20202;-65
2021/12/01 23:31:52;;;;;;;0.60;0.60;;;;;;;3.15;100.00;94233.53;10573609;28;20313;-64
2021/12/01 23:36:52;;;;;;;1.10;1.00;;;;;;;2.89;100.00;94237.25;10574152;28;20170;-63
2021/12/01 23:41:53;;;;;;;0.80;0.80;;;;;;;2.91;100.00;94237.91;10573209;28;20185;-63
2021/12/01 23:52:18;;;;;;;0.90;0.90;;;;;;;2.66;100.00;94266.47;10574756;28;20166;-64
2021/12/01 23:57:20;;;;;;;1.20;0.93;;;;;;;2.59;100.00;94265.53;10573069;28;20177;-65
